sensor_id;sensor_type;location;lat;lon;timestamp;P1;durP1;ratioP1;P2;durP2;ratioP2
826;SDS011;395;48.132;11.608;2023-02-28T00:00:16;4.13;;;3.40;;
826;SDS011;395;48.132;11.608;2023-02-28T00:02:43;3.95;;;3.38;;
826;SDS011;395;48.132;11.608;2023-02-28T00:05:10;4.47;;;3.33;;
826;SDS011;395;48.132;11.608;2023-02-28T00:07:37;4.88;;;3.30;;
826;SDS011;395;48.132;11.608;2023-02-28T00:10:06;4.77;;;3.33;;
826;SDS011;395;48.132;11.608;2023-02-28T00:12:34;5.40;;;3.60;;
826;SDS011;395;48.132;11.608;2023-02-28T00:15:00;4.63;;;3.10;;
826;SDS011;395;48.132;11.608;2023-02-28T00:17:26;7.47;;;4.13;;
826;SDS011;395;48.132;11.608;2023-02-28T00:19:52;4.30;;;3.70;;
826;SDS011;395;48.132;11.608;2023-02-28T00:22:18;6.03;;;3.60;;
826;SDS011;395;48.132;11.608;2023-02-28T00:24:45;4.57;;;3.38;;
826;SDS011;395;48.132;11.608;2023-02-28T00:27:12;5.55;;;3.97;;
826;SDS011;395;48.132;11.608;2023-02-28T00:29:38;4.28;;;3.53;;
826;SDS011;395;48.132;11.608;2023-02-28T00:32:04;4.50;;;3.20;;
826;SDS011;395;48.132;11.608;2023-02-28T00:34:30;4.88;;;3.38;;
826;SDS011;395;48.132;11.608;2023-02-28T00:36:56;4.33;;;3.93;;
826;SDS011;395;48.132;11.608;2023-02-28T00:39:21;4.27;;;3.87;;
826;SDS011;395;48.132;11.608;2023-02-28T00:41:47;4.03;;;3.53;;
826;SDS011;395;48.132;11.608;2023-02-28T00:44:13;4.93;;;3.60;;
826;SDS011;395;48.132;11.608;2023-02-28T00:46:38;5.83;;;3.50;;
826;SDS011;395;48.132;11.608;2023-02-28T00:49:04;5.50;;;3.80;;
826;SDS011;395;48.132;11.608;2023-02-28T00:51:29;4.80;;;3.50;;
826;SDS011;395;48.132;11.608;2023-02-28T00:53:55;11.23;;;3.77;;
826;SDS011;395;48.132;11.608;2023-02-28T00:56:21;5.80;;;4.10;;
826;SDS011;395;48.132;11.608;2023-02-28T00:58:46;5.53;;;3.30;;
826;SDS011;395;48.132;11.608;2023-02-28T01:01:12;5.07;;;3.90;;
826;SDS011;395;48.132;11.608;2023-02-28T01:03:38;4.57;;;3.67;;
826;SDS011;395;48.132;11.608;2023-02-28T01:06:04;9.03;;;4.17;;
826;SDS011;395;48.132;11.608;2023-02-28T01:08:30;6.28;;;3.63;;
826;SDS011;395;48.132;11.608;2023-02-28T01:10:56;5.67;;;3.97;;
826;SDS011;395;48.132;11.608;2023-02-28T01:13:22;8.23;;;3.80;;
826;SDS011;395;48.132;11.608;2023-02-28T01:15:52;5.63;;;3.88;;
826;SDS011;395;48.132;11.608;2023-02-28T01:18:20;7.55;;;3.80;;
826;SDS011;395;48.132;11.608;2023-02-28T01:20:47;4.93;;;3.55;;
826;SDS011;395;48.132;11.608;2023-02-28T01:23:13;5.50;;;3.97;;
826;SDS011;395;48.132;11.608;2023-02-28T01:25:39;8.00;;;3.63;;
826;SDS011;395;48.132;11.608;2023-02-28T01:28:05;4.78;;;3.60;;
826;SDS011;395;48.132;11.608;2023-02-28T01:30:31;4.20;;;3.80;;
826;SDS011;395;48.132;11.608;2023-02-28T01:32:57;4.70;;;3.23;;
826;SDS011;395;48.132;11.608;2023-02-28T01:35:23;5.75;;;4.13;;
826;SDS011;395;48.132;11.608;2023-02-28T01:37:49;4.50;;;3.83;;
826;SDS011;395;48.132;11.608;2023-02-28T01:40:14;4.47;;;3.57;;
826;SDS011;395;48.132;11.608;2023-02-28T01:42:40;4.30;;;3.83;;
826;SDS011;395;48.132;11.608;2023-02-28T01:45:16;3.40;;;3.10;;
826;SDS011;395;48.132;11.608;2023-02-28T01:47:55;5.60;;;4.25;;
826;SDS011;395;48.132;11.608;2023-02-28T01:50:26;4.65;;;3.95;;
826;SDS011;395;48.132;11.608;2023-02-28T01:52:55;4.45;;;3.63;;
826;SDS011;395;48.132;11.608;2023-02-28T01:55:24;5.15;;;4.15;;
826;SDS011;395;48.132;11.608;2023-02-28T01:57:55;4.47;;;3.47;;
826;SDS011;395;48.132;11.608;2023-02-28T02:00:23;7.47;;;4.35;;
826;SDS011;395;48.132;11.608;2023-02-28T02:02:53;4.85;;;4.35;;
826;SDS011;395;48.132;11.608;2023-02-28T02:05:23;4.57;;;3.97;;
826;SDS011;395;48.132;11.608;2023-02-28T02:07:52;4.15;;;3.67;;
826;SDS011;395;48.132;11.608;2023-02-28T02:10:30;5.50;;;4.18;;
826;SDS011;395;48.132;11.608;2023-02-28T02:24:48;6.22;;;4.18;;
826;SDS011;395;48.132;11.608;2023-02-28T02:33:48;5.13;;;3.67;;
826;SDS011;395;48.132;11.608;2023-02-28T02:36:40;4.85;;;4.05;;
826;SDS011;395;48.132;11.608;2023-02-28T02:42:19;5.32;;;3.95;;
826;SDS011;395;48.132;11.608;2023-02-28T02:44:58;4.35;;;3.90;;
826;SDS011;395;48.132;11.608;2023-02-28T02:47:31;5.88;;;4.30;;
826;SDS011;395;48.132;11.608;2023-02-28T02:49:59;5.78;;;3.88;;
826;SDS011;395;48.132;11.608;2023-02-28T02:52:40;6.75;;;4.03;;
826;SDS011;395;48.132;11.608;2023-02-28T02:55:09;4.85;;;4.22;;
826;SDS011;395;48.132;11.608;2023-02-28T02:57:47;4.07;;;3.67;;
826;SDS011;395;48.132;11.608;2023-02-28T03:00:16;11.45;;;5.82;;
826;SDS011;395;48.132;11.608;2023-02-28T03:02:45;6.07;;;4.50;;
826;SDS011;395;48.132;11.608;2023-02-28T03:05:21;5.10;;;4.60;;
826;SDS011;395;48.132;11.608;2023-02-28T03:07:52;5.65;;;4.32;;
826;SDS011;395;48.132;11.608;2023-02-28T03:13:00;4.60;;;3.35;;
826;SDS011;395;48.132;11.608;2023-02-28T03:15:51;6.15;;;4.00;;
826;SDS011;395;48.132;11.608;2023-02-28T03:24:10;5.00;;;4.35;;
826;SDS011;395;48.132;11.608;2023-02-28T03:26:30;5.97;;;4.60;;
826;SDS011;395;48.132;11.608;2023-02-28T03:29:06;8.02;;;5.25;;
826;SDS011;395;48.132;11.608;2023-02-28T03:32:02;7.13;;;4.55;;
826;SDS011;395;48.132;11.608;2023-02-28T03:34:39;9.35;;;4.05;;
826;SDS011;395;48.132;11.608;2023-02-28T03:37:14;7.68;;;4.82;;
826;SDS011;395;48.132;11.608;2023-02-28T03:39:49;5.80;;;4.85;;
826;SDS011;395;48.132;11.608;2023-02-28T03:42:29;6.60;;;5.00;;
826;SDS011;395;48.132;11.608;2023-02-28T03:45:18;8.40;;;5.40;;
826;SDS011;395;48.132;11.608;2023-02-28T03:47:58;6.00;;;4.50;;
826;SDS011;395;48.132;11.608;2023-02-28T03:50:44;8.75;;;5.60;;
826;SDS011;395;48.132;11.608;2023-02-28T03:53:56;5.63;;;4.43;;
826;SDS011;395;48.132;11.608;2023-02-28T03:56:15;7.63;;;5.00;;
826;SDS011;395;48.132;11.608;2023-02-28T03:58:57;6.40;;;4.70;;
826;SDS011;395;48.132;11.608;2023-02-28T04:01:34;7.35;;;4.90;;
826;SDS011;395;48.132;11.608;2023-02-28T04:04:09;8.38;;;5.95;;
826;SDS011;395;48.132;11.608;2023-02-28T04:06:36;7.63;;;5.75;;
826;SDS011;395;48.132;11.608;2023-02-28T04:09:03;8.87;;;5.27;;
826;SDS011;395;48.132;11.608;2023-02-28T04:11:35;8.48;;;5.35;;
826;SDS011;395;48.132;11.608;2023-02-28T04:14:03;10.82;;;5.50;;
826;SDS011;395;48.132;11.608;2023-02-28T04:16:30;10.00;;;5.55;;
826;SDS011;395;48.132;11.608;2023-02-28T04:18:56;8.32;;;5.80;;
826;SDS011;395;48.132;11.608;2023-02-28T04:21:32;7.28;;;6.50;;
826;SDS011;395;48.132;11.608;2023-02-28T04:24:01;9.25;;;5.80;;
826;SDS011;395;48.132;11.608;2023-02-28T04:26:30;7.85;;;5.15;;
826;SDS011;395;48.132;11.608;2023-02-28T04:28:57;8.73;;;5.90;;
826;SDS011;395;48.132;11.608;2023-02-28T04:31:23;8.55;;;5.95;;
826;SDS011;395;48.132;11.608;2023-02-28T04:33:49;7.60;;;6.20;;
826;SDS011;395;48.132;11.608;2023-02-28T04:36:15;12.43;;;6.13;;
826;SDS011;395;48.132;11.608;2023-02-28T04:38:42;8.82;;;6.32;;
826;SDS011;395;48.132;11.608;2023-02-28T04:41:08;9.07;;;5.80;;
826;SDS011;395;48.132;11.608;2023-02-28T04:43:34;7.23;;;5.70;;
826;SDS011;395;48.132;11.608;2023-02-28T04:46:01;7.60;;;6.60;;
826;SDS011;395;48.132;11.608;2023-02-28T04:48:28;9.35;;;6.28;;
826;SDS011;395;48.132;11.608;2023-02-28T04:50:55;10.70;;;7.63;;
826;SDS011;395;48.132;11.608;2023-02-28T04:53:35;8.95;;;6.53;;
826;SDS011;395;48.132;11.608;2023-02-28T04:56:02;12.77;;;6.90;;
826;SDS011;395;48.132;11.608;2023-02-28T04:58:28;9.65;;;6.80;;
826;SDS011;395;48.132;11.608;2023-02-28T05:00:56;11.07;;;6.70;;
826;SDS011;395;48.132;11.608;2023-02-28T05:03:30;8.60;;;6.60;;
826;SDS011;395;48.132;11.608;2023-02-28T05:05:55;10.90;;;7.33;;
826;SDS011;395;48.132;11.608;2023-02-28T05:08:21;10.63;;;7.10;;
826;SDS011;395;48.132;11.608;2023-02-28T05:10:46;9.13;;;7.30;;
826;SDS011;395;48.132;11.608;2023-02-28T05:13:12;12.80;;;6.70;;
826;SDS011;395;48.132;11.608;2023-02-28T05:15:38;10.90;;;7.87;;
826;SDS011;395;48.132;11.608;2023-02-28T05:18:04;10.13;;;7.40;;
826;SDS011;395;48.132;11.608;2023-02-28T05:20:29;14.40;;;8.27;;
826;SDS011;395;48.132;11.608;2023-02-28T05:22:55;10.90;;;7.27;;
826;SDS011;395;48.132;11.608;2023-02-28T05:25:23;12.90;;;8.00;;
826;SDS011;395;48.132;11.608;2023-02-28T05:27:49;8.67;;;7.77;;
826;SDS011;395;48.132;11.608;2023-02-28T05:30:14;10.43;;;7.60;;
826;SDS011;395;48.132;11.608;2023-02-28T05:32:40;10.10;;;7.87;;
826;SDS011;395;48.132;11.608;2023-02-28T05:35:10;12.93;;;8.73;;
826;SDS011;395;48.132;11.608;2023-02-28T05:37:37;14.05;;;8.10;;
826;SDS011;395;48.132;11.608;2023-02-28T05:40:04;11.55;;;8.90;;
826;SDS011;395;48.132;11.608;2023-02-28T05:42:36;12.27;;;8.02;;
826;SDS011;395;48.132;11.608;2023-02-28T05:45:05;11.98;;;8.82;;
826;SDS011;395;48.132;11.608;2023-02-28T05:47:32;13.00;;;8.35;;
826;SDS011;395;48.132;11.608;2023-02-28T05:49:57;10.73;;;8.10;;
826;SDS011;395;48.132;11.608;2023-02-28T05:52:23;12.30;;;9.00;;
826;SDS011;395;48.132;11.608;2023-02-28T05:54:49;14.17;;;9.53;;
826;SDS011;395;48.132;11.608;2023-02-28T05:57:14;11.93;;;9.40;;
826;SDS011;395;48.132;11.608;2023-02-28T05:59:40;11.37;;;8.77;;
826;SDS011;395;48.132;11.608;2023-02-28T06:02:07;13.73;;;9.43;;
826;SDS011;395;48.132;11.608;2023-02-28T06:04:37;12.85;;;9.48;;
826;SDS011;395;48.132;11.608;2023-02-28T06:07:03;12.77;;;9.63;;
826;SDS011;395;48.132;11.608;2023-02-28T06:09:28;14.30;;;10.10;;
826;SDS011;395;48.132;11.608;2023-02-28T06:11:54;14.90;;;10.57;;
826;SDS011;395;48.132;11.608;2023-02-28T06:14:22;14.98;;;10.85;;
826;SDS011;395;48.132;11.608;2023-02-28T06:16:48;19.90;;;11.53;;
826;SDS011;395;48.132;11.608;2023-02-28T06:19:13;17.57;;;10.70;;
826;SDS011;395;48.132;11.608;2023-02-28T06:21:40;16.90;;;11.75;;
826;SDS011;395;48.132;11.608;2023-02-28T06:24:06;17.63;;;12.30;;
826;SDS011;395;48.132;11.608;2023-02-28T06:26:32;20.55;;;11.27;;
826;SDS011;395;48.132;11.608;2023-02-28T06:28:58;16.43;;;11.13;;
826;SDS011;395;48.132;11.608;2023-02-28T06:31:23;17.50;;;11.57;;
826;SDS011;395;48.132;11.608;2023-02-28T06:33:51;27.35;;;12.80;;
826;SDS011;395;48.132;11.608;2023-02-28T06:36:17;19.33;;;10.68;;
826;SDS011;395;48.132;11.608;2023-02-28T06:38:43;17.70;;;12.45;;
826;SDS011;395;48.132;11.608;2023-02-28T06:41:10;18.52;;;12.15;;
826;SDS011;395;48.132;11.608;2023-02-28T06:43:37;17.02;;;11.50;;
826;SDS011;395;48.132;11.608;2023-02-28T06:46:06;17.05;;;11.15;;
826;SDS011;395;48.132;11.608;2023-02-28T06:48:33;16.75;;;11.95;;
826;SDS011;395;48.132;11.608;2023-02-28T06:51:07;16.20;;;11.30;;
826;SDS011;395;48.132;11.608;2023-02-28T06:53:38;16.58;;;11.50;;
826;SDS011;395;48.132;11.608;2023-02-28T06:56:04;14.60;;;10.70;;
826;SDS011;395;48.132;11.608;2023-02-28T06:58:31;24.40;;;11.98;;
826;SDS011;395;48.132;11.608;2023-02-28T07:00:57;18.02;;;12.48;;
826;SDS011;395;48.132;11.608;2023-02-28T07:03:23;15.40;;;11.67;;
826;SDS011;395;48.132;11.608;2023-02-28T07:05:48;17.03;;;10.47;;
826;SDS011;395;48.132;11.608;2023-02-28T07:08:14;21.30;;;12.50;;
826;SDS011;395;48.132;11.608;2023-02-28T07:10:40;17.10;;;11.67;;
826;SDS011;395;48.132;11.608;2023-02-28T07:13:06;21.30;;;11.68;;
826;SDS011;395;48.132;11.608;2023-02-28T07:15:34;15.10;;;11.60;;
826;SDS011;395;48.132;11.608;2023-02-28T07:18:02;19.35;;;11.88;;
826;SDS011;395;48.132;11.608;2023-02-28T07:20:28;16.27;;;12.10;;
826;SDS011;395;48.132;11.608;2023-02-28T07:22:55;15.93;;;11.70;;
826;SDS011;395;48.132;11.608;2023-02-28T07:25:24;22.55;;;12.80;;
826;SDS011;395;48.132;11.608;2023-02-28T07:27:51;21.92;;;12.48;;
826;SDS011;395;48.132;11.608;2023-02-28T07:30:17;18.30;;;11.37;;
826;SDS011;395;48.132;11.608;2023-02-28T07:32:43;15.48;;;11.43;;
826;SDS011;395;48.132;11.608;2023-02-28T07:35:09;16.70;;;11.70;;
826;SDS011;395;48.132;11.608;2023-02-28T07:37:35;15.60;;;11.37;;
826;SDS011;395;48.132;11.608;2023-02-28T07:40:04;15.98;;;12.57;;
826;SDS011;395;48.132;11.608;2023-02-28T07:42:35;17.45;;;11.75;;
826;SDS011;395;48.132;11.608;2023-02-28T07:45:01;20.48;;;12.55;;
826;SDS011;395;48.132;11.608;2023-02-28T07:47:28;17.10;;;12.50;;
826;SDS011;395;48.132;11.608;2023-02-28T07:49:55;19.63;;;12.48;;
826;SDS011;395;48.132;11.608;2023-02-28T07:52:21;21.00;;;12.20;;
826;SDS011;395;48.132;11.608;2023-02-28T07:54:48;20.23;;;12.25;;
826;SDS011;395;48.132;11.608;2023-02-28T07:57:17;15.77;;;11.93;;
826;SDS011;395;48.132;11.608;2023-02-28T07:59:43;17.57;;;12.60;;
826;SDS011;395;48.132;11.608;2023-02-28T08:02:15;18.80;;;12.50;;
826;SDS011;395;48.132;11.608;2023-02-28T08:04:42;17.83;;;12.70;;
826;SDS011;395;48.132;11.608;2023-02-28T08:07:08;21.50;;;13.65;;
826;SDS011;395;48.132;11.608;2023-02-28T08:09:38;24.92;;;13.38;;
826;SDS011;395;48.132;11.608;2023-02-28T08:12:04;19.30;;;14.10;;
826;SDS011;395;48.132;11.608;2023-02-28T08:14:30;34.47;;;15.73;;
826;SDS011;395;48.132;11.608;2023-02-28T08:16:56;27.93;;;13.50;;
826;SDS011;395;48.132;11.608;2023-02-28T08:19:22;23.43;;;12.70;;
826;SDS011;395;48.132;11.608;2023-02-28T08:21:47;19.03;;;12.40;;
826;SDS011;395;48.132;11.608;2023-02-28T08:24:13;17.00;;;12.77;;
826;SDS011;395;48.132;11.608;2023-02-28T08:26:39;19.00;;;12.53;;
826;SDS011;395;48.132;11.608;2023-02-28T08:29:04;19.63;;;13.03;;
826;SDS011;395;48.132;11.608;2023-02-28T08:31:30;24.50;;;14.67;;
826;SDS011;395;48.132;11.608;2023-02-28T08:33:56;34.23;;;13.97;;
826;SDS011;395;48.132;11.608;2023-02-28T08:36:24;28.08;;;15.05;;
826;SDS011;395;48.132;11.608;2023-02-28T08:38:51;23.98;;;14.05;;
826;SDS011;395;48.132;11.608;2023-02-28T08:41:17;23.37;;;13.60;;
826;SDS011;395;48.132;11.608;2023-02-28T08:43:43;24.73;;;13.87;;
826;SDS011;395;48.132;11.608;2023-02-28T08:46:11;19.97;;;12.13;;
826;SDS011;395;48.132;11.608;2023-02-28T08:48:38;18.00;;;12.10;;
826;SDS011;395;48.132;11.608;2023-02-28T08:51:08;24.40;;;12.83;;
826;SDS011;395;48.132;11.608;2023-02-28T08:53:36;17.33;;;12.60;;
826;SDS011;395;48.132;11.608;2023-02-28T08:56:05;21.63;;;13.10;;
826;SDS011;395;48.132;11.608;2023-02-28T08:58:33;21.23;;;13.55;;
826;SDS011;395;48.132;11.608;2023-02-28T09:01:00;20.10;;;13.05;;
826;SDS011;395;48.132;11.608;2023-02-28T09:03:35;16.45;;;12.57;;
826;SDS011;395;48.132;11.608;2023-02-28T09:06:01;20.30;;;12.33;;
826;SDS011;395;48.132;11.608;2023-02-28T09:08:29;16.27;;;12.02;;
826;SDS011;395;48.132;11.608;2023-02-28T09:10:55;20.40;;;12.77;;
826;SDS011;395;48.132;11.608;2023-02-28T09:13:23;16.80;;;12.70;;
826;SDS011;395;48.132;11.608;2023-02-28T09:15:49;22.88;;;13.68;;
826;SDS011;395;48.132;11.608;2023-02-28T09:18:15;28.83;;;16.23;;
826;SDS011;395;48.132;11.608;2023-02-28T09:20:41;24.17;;;12.80;;
826;SDS011;395;48.132;11.608;2023-02-28T09:23:08;20.52;;;13.90;;
826;SDS011;395;48.132;11.608;2023-02-28T09:25:35;18.63;;;13.05;;
826;SDS011;395;48.132;11.608;2023-02-28T09:28:01;17.37;;;13.20;;
826;SDS011;395;48.132;11.608;2023-02-28T09:30:28;18.60;;;12.80;;
826;SDS011;395;48.132;11.608;2023-02-28T09:32:53;16.50;;;11.93;;
826;SDS011;395;48.132;11.608;2023-02-28T09:35:23;19.83;;;13.02;;
826;SDS011;395;48.132;11.608;2023-02-28T09:37:50;18.80;;;12.13;;
826;SDS011;395;48.132;11.608;2023-02-28T09:40:17;25.58;;;14.48;;
826;SDS011;395;48.132;11.608;2023-02-28T09:42:45;18.73;;;12.68;;
826;SDS011;395;48.132;11.608;2023-02-28T09:45:19;17.90;;;13.00;;
826;SDS011;395;48.132;11.608;2023-02-28T09:47:59;19.27;;;12.70;;
826;SDS011;395;48.132;11.608;2023-02-28T09:50:36;20.30;;;14.13;;
826;SDS011;395;48.132;11.608;2023-02-28T09:53:15;27.50;;;15.00;;
826;SDS011;395;48.132;11.608;2023-02-28T09:55:53;19.70;;;13.15;;
826;SDS011;395;48.132;11.608;2023-02-28T10:01:02;15.30;;;12.60;;
826;SDS011;395;48.132;11.608;2023-02-28T10:03:40;17.05;;;12.07;;
826;SDS011;395;48.132;11.608;2023-02-28T10:06:39;16.83;;;12.05;;
826;SDS011;395;48.132;11.608;2023-02-28T10:11:42;18.60;;;12.75;;
826;SDS011;395;48.132;11.608;2023-02-28T10:14:12;26.77;;;14.07;;
826;SDS011;395;48.132;11.608;2023-02-28T10:16:43;30.20;;;15.30;;
826;SDS011;395;48.132;11.608;2023-02-28T10:19:41;29.55;;;14.13;;
826;SDS011;395;48.132;11.608;2023-02-28T10:22:24;23.98;;;14.73;;
826;SDS011;395;48.132;11.608;2023-02-28T10:24:55;18.40;;;12.95;;
826;SDS011;395;48.132;11.608;2023-02-28T10:27:26;19.13;;;13.95;;
826;SDS011;395;48.132;11.608;2023-02-28T10:29:56;20.88;;;14.07;;
826;SDS011;395;48.132;11.608;2023-02-28T10:32:27;20.10;;;13.40;;
826;SDS011;395;48.132;11.608;2023-02-28T10:35:15;19.48;;;13.02;;
826;SDS011;395;48.132;11.608;2023-02-28T10:37:42;19.80;;;12.48;;
826;SDS011;395;48.132;11.608;2023-02-28T10:43:00;30.83;;;14.52;;
826;SDS011;395;48.132;11.608;2023-02-28T10:45:31;20.52;;;13.63;;
826;SDS011;395;48.132;11.608;2023-02-28T10:50:59;24.80;;;13.85;;
826;SDS011;395;48.132;11.608;2023-02-28T10:53:59;22.40;;;13.30;;
826;SDS011;395;48.132;11.608;2023-02-28T10:56:20;15.30;;;10.98;;
826;SDS011;395;48.132;11.608;2023-02-28T11:01:34;18.33;;;13.75;;
826;SDS011;395;48.132;11.608;2023-02-28T11:04:39;21.77;;;13.38;;
826;SDS011;395;48.132;11.608;2023-02-28T11:07:20;14.45;;;12.32;;
826;SDS011;395;48.132;11.608;2023-02-28T11:09:54;17.35;;;12.90;;
826;SDS011;395;48.132;11.608;2023-02-28T11:15:04;16.85;;;13.23;;
826;SDS011;395;48.132;11.608;2023-02-28T11:17:43;16.85;;;13.10;;
826;SDS011;395;48.132;11.608;2023-02-28T11:22:46;19.13;;;13.80;;
826;SDS011;395;48.132;11.608;2023-02-28T11:25:19;16.33;;;12.30;;
826;SDS011;395;48.132;11.608;2023-02-28T11:27:54;17.60;;;12.55;;
826;SDS011;395;48.132;11.608;2023-02-28T11:35:55;15.18;;;12.25;;
826;SDS011;395;48.132;11.608;2023-02-28T11:38:26;17.20;;;12.90;;
826;SDS011;395;48.132;11.608;2023-02-28T11:43:25;19.40;;;14.48;;
826;SDS011;395;48.132;11.608;2023-02-28T11:46:14;19.08;;;13.95;;
826;SDS011;395;48.132;11.608;2023-02-28T12:03:21;17.15;;;12.73;;
826;SDS011;395;48.132;11.608;2023-02-28T12:11:50;16.80;;;13.05;;
826;SDS011;395;48.132;11.608;2023-02-28T12:19:29;20.13;;;13.50;;
826;SDS011;395;48.132;11.608;2023-02-28T12:22:15;17.02;;;11.60;;
826;SDS011;395;48.132;11.608;2023-02-28T12:27:47;29.52;;;13.52;;
826;SDS011;395;48.132;11.608;2023-02-28T12:30:25;21.65;;;11.90;;
826;SDS011;395;48.132;11.608;2023-02-28T12:32:56;17.50;;;12.13;;
826;SDS011;395;48.132;11.608;2023-02-28T12:35:29;16.40;;;11.18;;
826;SDS011;395;48.132;11.608;2023-02-28T12:38:08;18.63;;;12.23;;
826;SDS011;395;48.132;11.608;2023-02-28T12:43:36;20.88;;;12.40;;
826;SDS011;395;48.132;11.608;2023-02-28T12:46:23;17.83;;;12.35;;
826;SDS011;395;48.132;11.608;2023-02-28T12:48:57;16.90;;;12.32;;
826;SDS011;395;48.132;11.608;2023-02-28T12:51:29;15.23;;;12.30;;
826;SDS011;395;48.132;11.608;2023-02-28T12:54:02;13.55;;;11.20;;
826;SDS011;395;48.132;11.608;2023-02-28T13:11:01;31.13;;;11.77;;
826;SDS011;395;48.132;11.608;2023-02-28T13:13:29;15.38;;;10.68;;
826;SDS011;395;48.132;11.608;2023-02-28T13:18:38;18.38;;;11.15;;
826;SDS011;395;48.132;11.608;2023-02-28T13:21:24;13.60;;;10.98;;
826;SDS011;395;48.132;11.608;2023-02-28T13:26:23;14.13;;;11.40;;
826;SDS011;395;48.132;11.608;2023-02-28T13:35:34;14.75;;;11.30;;
826;SDS011;395;48.132;11.608;2023-02-28T13:39:51;19.50;;;11.25;;
826;SDS011;395;48.132;11.608;2023-02-28T13:47:32;15.20;;;11.38;;
826;SDS011;395;48.132;11.608;2023-02-28T14:04:25;19.00;;;11.40;;
826;SDS011;395;48.132;11.608;2023-02-28T14:06:58;13.88;;;10.70;;
826;SDS011;395;48.132;11.608;2023-02-28T14:09:29;12.55;;;11.25;;
826;SDS011;395;48.132;11.608;2023-02-28T14:11:56;15.48;;;11.40;;
826;SDS011;395;48.132;11.608;2023-02-28T14:15:23;51.67;;;37.78;;
826;SDS011;395;48.132;11.608;2023-02-28T14:17:15;34.20;;;27.52;;
826;SDS011;395;48.132;11.608;2023-02-28T14:19:44;17.17;;;12.63;;
826;SDS011;395;48.132;11.608;2023-02-28T14:22:19;36.85;;;13.88;;
826;SDS011;395;48.132;11.608;2023-02-28T14:28:39;17.15;;;10.50;;
826;SDS011;395;48.132;11.608;2023-02-28T14:31:25;21.73;;;11.07;;
826;SDS011;395;48.132;11.608;2023-02-28T14:33:59;14.80;;;10.70;;
826;SDS011;395;48.132;11.608;2023-02-28T14:36:45;17.40;;;10.60;;
826;SDS011;395;48.132;11.608;2023-02-28T14:39:13;19.42;;;10.00;;
826;SDS011;395;48.132;11.608;2023-02-28T14:41:45;15.02;;;10.88;;
826;SDS011;395;48.132;11.608;2023-02-28T14:46:43;20.60;;;11.70;;
826;SDS011;395;48.132;11.608;2023-02-28T14:49:21;24.52;;;11.48;;
826;SDS011;395;48.132;11.608;2023-02-28T14:52:17;28.00;;;11.82;;
826;SDS011;395;48.132;11.608;2023-02-28T14:55:12;25.00;;;12.50;;
826;SDS011;395;48.132;11.608;2023-02-28T14:57:50;20.90;;;11.55;;
826;SDS011;395;48.132;11.608;2023-02-28T15:02:51;20.17;;;11.43;;
826;SDS011;395;48.132;11.608;2023-02-28T15:05:28;19.30;;;11.13;;
826;SDS011;395;48.132;11.608;2023-02-28T15:08:06;14.93;;;10.02;;
826;SDS011;395;48.132;11.608;2023-02-28T15:10:32;18.85;;;11.00;;
826;SDS011;395;48.132;11.608;2023-02-28T15:13:06;28.98;;;12.77;;
826;SDS011;395;48.132;11.608;2023-02-28T15:15:56;27.08;;;12.18;;
826;SDS011;395;48.132;11.608;2023-02-28T15:18:39;16.25;;;10.82;;
826;SDS011;395;48.132;11.608;2023-02-28T15:21:20;16.48;;;10.82;;
826;SDS011;395;48.132;11.608;2023-02-28T15:23:49;16.52;;;10.43;;
826;SDS011;395;48.132;11.608;2023-02-28T15:26:30;23.40;;;11.40;;
826;SDS011;395;48.132;11.608;2023-02-28T15:29:00;16.92;;;10.50;;
826;SDS011;395;48.132;11.608;2023-02-28T15:31:34;13.23;;;9.27;;
826;SDS011;395;48.132;11.608;2023-02-28T15:34:05;13.10;;;10.02;;
826;SDS011;395;48.132;11.608;2023-02-28T15:36:33;14.32;;;10.30;;
826;SDS011;395;48.132;11.608;2023-02-28T15:39:02;15.07;;;10.43;;
826;SDS011;395;48.132;11.608;2023-02-28T15:41:35;20.15;;;11.50;;
826;SDS011;395;48.132;11.608;2023-02-28T15:44:23;12.73;;;10.10;;
826;SDS011;395;48.132;11.608;2023-02-28T15:49:27;11.88;;;9.98;;
826;SDS011;395;48.132;11.608;2023-02-28T15:51:55;13.85;;;10.68;;
826;SDS011;395;48.132;11.608;2023-02-28T15:54:33;15.32;;;8.80;;
826;SDS011;395;48.132;11.608;2023-02-28T15:57:06;14.60;;;10.48;;
826;SDS011;395;48.132;11.608;2023-02-28T15:59:38;13.45;;;10.23;;
826;SDS011;395;48.132;11.608;2023-02-28T16:04:35;16.80;;;10.77;;
826;SDS011;395;48.132;11.608;2023-02-28T16:07:03;33.78;;;13.75;;
826;SDS011;395;48.132;11.608;2023-02-28T16:09:30;22.15;;;11.70;;
826;SDS011;395;48.132;11.608;2023-02-28T16:11:59;25.83;;;11.77;;
826;SDS011;395;48.132;11.608;2023-02-28T16:14:29;19.95;;;11.23;;
826;SDS011;395;48.132;11.608;2023-02-28T16:16:56;14.98;;;10.95;;
826;SDS011;395;48.132;11.608;2023-02-28T16:19:30;12.85;;;11.27;;
826;SDS011;395;48.132;11.608;2023-02-28T16:21:56;15.63;;;10.70;;
826;SDS011;395;48.132;11.608;2023-02-28T16:24:22;22.35;;;11.65;;
826;SDS011;395;48.132;11.608;2023-02-28T16:26:48;18.37;;;11.40;;
826;SDS011;395;48.132;11.608;2023-02-28T16:29:25;14.30;;;10.50;;
826;SDS011;395;48.132;11.608;2023-02-28T16:31:53;14.75;;;11.07;;
826;SDS011;395;48.132;11.608;2023-02-28T16:34:19;17.03;;;11.50;;
826;SDS011;395;48.132;11.608;2023-02-28T16:36:48;13.25;;;9.70;;
826;SDS011;395;48.132;11.608;2023-02-28T16:39:14;13.52;;;9.20;;
826;SDS011;395;48.132;11.608;2023-02-28T16:41:44;15.90;;;10.77;;
826;SDS011;395;48.132;11.608;2023-02-28T16:44:13;14.68;;;10.55;;
826;SDS011;395;48.132;11.608;2023-02-28T16:46:46;15.45;;;10.80;;
826;SDS011;395;48.132;11.608;2023-02-28T16:49:11;16.53;;;12.30;;
826;SDS011;395;48.132;11.608;2023-02-28T16:51:38;14.90;;;10.68;;
826;SDS011;395;48.132;11.608;2023-02-28T16:54:03;17.43;;;10.67;;
826;SDS011;395;48.132;11.608;2023-02-28T16:56:29;14.37;;;10.63;;
826;SDS011;395;48.132;11.608;2023-02-28T16:58:55;9.87;;;8.80;;
826;SDS011;395;48.132;11.608;2023-02-28T17:01:25;14.10;;;10.57;;
826;SDS011;395;48.132;11.608;2023-02-28T17:03:52;12.65;;;10.50;;
826;SDS011;395;48.132;11.608;2023-02-28T17:06:27;14.07;;;10.30;;
826;SDS011;395;48.132;11.608;2023-02-28T17:08:54;16.73;;;12.40;;
826;SDS011;395;48.132;11.608;2023-02-28T17:11:21;15.75;;;12.07;;
826;SDS011;395;48.132;11.608;2023-02-28T17:13:47;14.32;;;11.02;;
826;SDS011;395;48.132;11.608;2023-02-28T17:18:45;18.17;;;12.25;;
826;SDS011;395;48.132;11.608;2023-02-28T17:21:15;16.43;;;11.60;;
826;SDS011;395;48.132;11.608;2023-02-28T17:23:41;16.65;;;10.70;;
826;SDS011;395;48.132;11.608;2023-02-28T17:26:11;17.90;;;12.02;;
826;SDS011;395;48.132;11.608;2023-02-28T17:28:49;17.58;;;11.63;;
826;SDS011;395;48.132;11.608;2023-02-28T17:31:16;16.88;;;11.52;;
826;SDS011;395;48.132;11.608;2023-02-28T17:33:42;16.02;;;11.80;;
826;SDS011;395;48.132;11.608;2023-02-28T17:36:15;18.90;;;12.30;;
826;SDS011;395;48.132;11.608;2023-02-28T17:38:47;17.92;;;11.65;;
826;SDS011;395;48.132;11.608;2023-02-28T17:41:13;17.17;;;11.27;;
826;SDS011;395;48.132;11.608;2023-02-28T17:43:39;16.23;;;12.10;;
826;SDS011;395;48.132;11.608;2023-02-28T17:46:06;17.85;;;11.88;;
826;SDS011;395;48.132;11.608;2023-02-28T17:48:42;23.67;;;13.15;;
826;SDS011;395;48.132;11.608;2023-02-28T17:51:09;15.07;;;11.70;;
826;SDS011;395;48.132;11.608;2023-02-28T17:53:37;18.35;;;11.95;;
826;SDS011;395;48.132;11.608;2023-02-28T17:56:03;15.63;;;10.73;;
826;SDS011;395;48.132;11.608;2023-02-28T17:58:29;20.38;;;11.85;;
826;SDS011;395;48.132;11.608;2023-02-28T18:00:56;17.00;;;11.77;;